Terminal Aerodrome Forecast
Issued by NWS Bismarck, ND

Home | Current Version | Previous Version | Text Only | Print | Product List | Glossary Off
Versions: 1 2 3 4 5 6 7 8 9 10 11 12 13 14 15 16

000
FTUS43 KBIS 220522
TAFISN
TAF
KISN 220522Z 2206/2306 VRB03KT P6SM SCT200
     FM221300 VRB03KT P6SM BKN140
     FM221700 09007KT P6SM SCT130
     FM221900 10011KT P6SM SCT140
     FM230100 10010KT P6SM -SHRA VCTS SCT050 OVC100CB=

USA.gov is the U.S. government's official web portal to all federal, state and local government web resources and services.